createdAt,value
2018-05-26T00:00:50.282Z,23.4
2018-05-26T00:02:49.470Z,22.9
2018-05-26T00:04:49.875Z,22.9
2018-05-26T00:06:50.316Z,24.2
2018-05-26T00:08:49.659Z,24.2
2018-05-26T00:10:49.816Z,27.3
2018-05-26T00:12:49.990Z,24.8
2018-05-26T00:14:50.182Z,24.9
2018-05-26T00:16:49.499Z,25.6
2018-05-26T00:18:49.758Z,25.6
2018-05-26T00:20:49.928Z,23.4
2018-05-26T00:22:50.221Z,24.7
2018-05-26T00:24:50.411Z,24.0
2018-05-26T00:26:49.635Z,24.0
2018-05-26T00:28:49.782Z,24.1
2018-05-26T00:30:50.009Z,24.1
2018-05-26T00:32:50.135Z,25.4
2018-05-26T00:34:49.696Z,24.0
2018-05-26T00:36:50.065Z,24.0
2018-05-26T00:38:50.381Z,24.2
2018-05-26T00:40:49.648Z,24.2
2018-05-26T00:42:49.906Z,23.2
2018-05-26T00:44:50.137Z,24.5
2018-05-26T00:46:49.509Z,24.7
2018-05-26T00:48:49.715Z,24.7
2018-05-26T00:50:49.940Z,27.4
2018-05-26T00:52:50.127Z,26.6
2018-05-26T00:54:50.386Z,28.3
2018-05-26T00:56:49.754Z,28.3
2018-05-26T00:58:50.076Z,26.3
2018-05-26T01:00:50.351Z,25.8
2018-05-26T01:02:49.636Z,25.8
2018-05-26T01:04:50.064Z,25.3
2018-05-26T01:06:50.383Z,23.9
2018-05-26T01:08:49.576Z,27.1
2018-05-26T01:10:49.790Z,26.6
2018-05-26T01:12:50.132Z,27.6
2018-05-26T01:14:50.343Z,28.3
2018-05-26T01:16:49.682Z,28.3
2018-05-26T01:18:50.006Z,29.8
2018-05-26T01:20:50.274Z,31.8
2018-05-26T01:22:49.479Z,29.1
2018-05-26T01:24:49.849Z,28.8
2018-05-26T01:26:50.215Z,28.8
2018-05-26T01:28:49.502Z,31.4
2018-05-26T01:30:49.770Z,31.8
2018-05-26T01:32:50.001Z,31.8
2018-05-26T01:34:50.351Z,30.6
2018-05-26T01:36:49.715Z,30.6
2018-05-26T01:38:49.894Z,29.0
2018-05-26T01:40:50.124Z,29.6
2018-05-26T01:42:50.308Z,29.6
2018-05-26T01:44:49.536Z,30.8
2018-05-26T01:46:49.830Z,30.8
2018-05-26T01:48:50.080Z,31.6
2018-05-26T01:50:50.336Z,30.7
2018-05-26T01:52:49.627Z,31.5
2018-05-26T01:54:49.876Z,31.5
2018-05-26T01:56:50.202Z,30.1
2018-05-26T01:58:50.370Z,30.6
2018-05-26T02:00:49.616Z,30.6
2018-05-26T02:02:49.901Z,30.5
2018-05-26T02:04:50.337Z,30.5
2018-05-26T02:06:49.694Z,33.2
2018-05-26T02:08:49.831Z,34.0
2018-05-26T02:10:50.126Z,32.5
2018-05-26T02:12:50.357Z,32.5
2018-05-26T02:14:49.683Z,35.3
2018-05-26T02:16:50.041Z,33.3
2018-05-26T02:18:50.202Z,33.8
2018-05-26T02:20:50.390Z,33.9
2018-05-26T02:22:49.524Z,33.2
2018-05-26T02:24:49.684Z,33.2
2018-05-26T02:26:50.051Z,33.4
2018-05-26T02:28:50.195Z,33.1
2018-05-26T02:30:49.495Z,33.1
2018-05-26T02:32:49.681Z,30.7
2018-05-26T02:34:49.993Z,30.7
2018-05-26T02:36:50.389Z,31.0
2018-05-26T02:38:49.775Z,31.0
2018-05-26T02:40:50.029Z,30.9
2018-05-26T02:42:50.219Z,30.9
2018-05-26T02:44:50.436Z,29.8
2018-05-26T02:46:49.758Z,29.9
2018-05-26T02:48:49.993Z,31.4
2018-05-26T02:50:50.208Z,30.5
2018-05-26T02:52:49.469Z,29.8
2018-05-26T02:54:49.623Z,29.8
2018-05-26T02:56:49.994Z,31.4
2018-05-26T02:58:50.175Z,32.6
2018-05-26T03:00:50.425Z,33.7
2018-05-26T03:02:49.681Z,33.7
2018-05-26T03:04:50.024Z,33.7
2018-05-26T03:06:49.454Z,34.5
2018-05-26T03:08:49.614Z,32.3
2018-05-26T03:10:49.845Z,34.4
2018-05-26T03:12:50.051Z,34.4
2018-05-26T03:14:50.236Z,32.0
2018-05-26T03:16:50.200Z,33.1
2018-05-26T03:18:50.374Z,33.5
2018-05-26T03:20:49.605Z,33.5
2018-05-26T03:22:49.800Z,31.2
2018-05-26T03:24:50.000Z,32.1
2018-05-26T03:26:50.315Z,28.7
2018-05-26T03:28:49.464Z,29.9
2018-05-26T03:30:49.658Z,29.9
2018-05-26T03:32:49.837Z,29.9
2018-05-26T03:34:50.333Z,30.9
2018-05-26T03:36:49.815Z,27.8
2018-05-26T03:38:50.035Z,27.8
2018-05-26T03:40:50.250Z,29.1
2018-05-26T03:42:50.434Z,30.5
2018-05-26T03:44:49.581Z,28.5
2018-05-26T03:46:49.912Z,28.1
2018-05-26T03:48:50.106Z,28.1
2018-05-26T03:50:50.369Z,26.3
2018-05-26T03:52:49.613Z,26.3
2018-05-26T03:54:49.822Z,27.4
2018-05-26T03:56:50.244Z,27.4
2018-05-26T03:58:50.435Z,25.3
2018-05-26T04:00:49.674Z,25.3
2018-05-26T04:02:49.869Z,25.3
2018-05-26T04:04:50.323Z,24.2
2018-05-26T04:06:49.826Z,23.4
2018-05-26T04:08:50.047Z,24.9
2018-05-26T04:10:50.299Z,24.9
2018-05-26T04:12:49.490Z,24.0
2018-05-26T04:14:49.718Z,25.5
2018-05-26T04:16:49.997Z,25.5
2018-05-26T04:18:50.256Z,26.2
2018-05-26T04:20:50.430Z,26.0
2018-05-26T04:22:49.649Z,26.0
2018-05-26T04:24:49.887Z,26.0
2018-05-26T04:26:49.558Z,25.7
2018-05-26T04:28:49.749Z,25.5
2018-05-26T04:30:49.881Z,25.8
2018-05-26T04:32:50.002Z,23.3
2018-05-26T04:34:50.411Z,23.3
2018-05-26T04:36:49.626Z,24.5
2018-05-26T04:38:49.757Z,24.0
2018-05-26T04:40:49.981Z,25.9
2018-05-26T04:42:50.137Z,24.3
2018-05-26T04:44:50.341Z,24.3
2018-05-26T04:46:49.738Z,25.1
2018-05-26T04:48:49.978Z,25.9
2018-05-26T04:50:50.207Z,27.2
2018-05-26T04:52:50.378Z,27.6
2018-05-26T04:54:49.585Z,28.2
2018-05-26T04:56:49.993Z,28.5
2018-05-26T04:58:50.273Z,28.5
2018-05-26T05:00:49.584Z,28.7
2018-05-26T05:02:49.853Z,26.7
2018-05-26T05:04:50.236Z,26.9
2018-05-26T05:06:49.679Z,26.9
2018-05-26T05:08:49.940Z,24.9
2018-05-26T05:10:50.321Z,26.1
2018-05-26T05:12:49.472Z,24.2
2018-05-26T05:14:49.736Z,23.4
2018-05-26T05:16:50.041Z,23.4
2018-05-26T05:18:50.252Z,23.2
2018-05-26T05:20:49.439Z,21.5
2018-05-26T05:22:49.594Z,21.5
2018-05-26T05:24:49.751Z,21.5
2018-05-26T05:26:50.093Z,22.2
2018-05-26T05:28:50.014Z,19.8
2018-05-26T05:30:50.173Z,20.2
2018-05-26T05:32:50.322Z,20.2
2018-05-26T05:34:49.634Z,18.7
2018-05-26T05:36:49.622Z,18.7
2018-05-26T05:38:49.777Z,18.8
2018-05-26T05:40:49.958Z,17.6
2018-05-26T05:42:50.068Z,18.2
2018-05-26T05:44:50.240Z,17.2
2018-05-26T05:46:49.599Z,17.2
2018-05-26T05:48:49.814Z,17.0
2018-05-26T05:50:49.951Z,17.5
2018-05-26T05:52:50.103Z,16.9
2018-05-26T05:54:50.300Z,16.9
2018-05-26T05:56:49.653Z,17.2
2018-05-26T05:58:49.839Z,16.7
2018-05-26T06:00:50.010Z,16.4
2018-05-26T06:02:50.228Z,15.9
2018-05-26T06:04:49.635Z,14.9
2018-05-26T06:06:49.930Z,14.9
2018-05-26T06:08:50.101Z,15.0
2018-05-26T06:10:50.286Z,16.5
2018-05-26T06:12:49.551Z,15.9
2018-05-26T06:14:49.858Z,15.9
2018-05-26T06:16:49.494Z,16.1
2018-05-26T06:18:49.868Z,15.5
2018-05-26T06:20:50.111Z,15.0
2018-05-26T06:22:50.308Z,15.0
2018-05-26T06:24:49.569Z,15.0
2018-05-26T06:26:49.897Z,16.6
2018-05-26T06:28:50.119Z,15.4
2018-05-26T06:30:50.301Z,15.4
2018-05-26T06:32:49.495Z,15.7
2018-05-26T06:34:49.805Z,15.7
2018-05-26T06:36:50.154Z,15.8
2018-05-26T06:38:50.396Z,15.3
2018-05-26T06:40:49.663Z,15.3
2018-05-26T06:42:49.836Z,15.4
2018-05-26T06:44:50.038Z,16.7
2018-05-26T06:46:50.316Z,15.4
2018-05-26T06:48:49.500Z,13.7
2018-05-26T06:50:49.707Z,13.7
2018-05-26T06:52:49.776Z,12.3
2018-05-26T06:54:49.851Z,12.3
2018-05-26T06:56:50.183Z,12.3
2018-05-26T06:58:50.452Z,11.4
2018-05-26T07:00:49.618Z,11.4
2018-05-26T07:02:49.928Z,10.8
2018-05-26T07:04:50.401Z,10.8
2018-05-26T07:06:49.700Z,10.2
2018-05-26T07:08:49.847Z,10.5
2018-05-26T07:10:50.008Z,10.5
2018-05-26T07:12:50.178Z,10.1
2018-05-26T07:14:50.328Z,9.8
2018-05-26T07:16:49.663Z,9.8
2018-05-26T07:18:49.682Z,8.4
2018-05-26T07:20:49.989Z,8.0
2018-05-26T07:22:50.214Z,8.0
2018-05-26T07:24:50.401Z,7.7
2018-05-26T07:26:49.673Z,8.7
2018-05-26T07:28:49.781Z,8.2
2018-05-26T07:30:49.956Z,8.0
2018-05-26T07:32:50.131Z,8.0
2018-05-26T07:34:49.529Z,7.5
2018-05-26T07:36:49.810Z,7.5
2018-05-26T07:38:50.069Z,5.0
2018-05-26T07:40:50.276Z,5.0
2018-05-26T07:42:49.480Z,5.3
2018-05-26T07:44:49.661Z,5.4
2018-05-26T07:46:49.927Z,4.8
2018-05-26T07:48:50.047Z,4.8
2018-05-26T07:50:50.177Z,5.1
2018-05-26T07:52:50.403Z,5.0
2018-05-26T07:54:49.552Z,4.5
2018-05-26T07:56:49.955Z,4.9
2018-05-26T07:58:50.182Z,6.2
2018-05-26T08:00:49.612Z,6.2
2018-05-26T08:02:50.130Z,4.9
2018-05-26T08:04:49.554Z,4.7
2018-05-26T08:06:49.866Z,4.9
2018-05-26T08:08:50.089Z,4.9
2018-05-26T08:10:50.377Z,4.9
2018-05-26T08:12:49.901Z,4.8
2018-05-26T08:14:50.037Z,4.8
2018-05-26T08:16:50.369Z,4.9
2018-05-26T08:18:49.528Z,4.7
2018-05-26T08:20:49.626Z,4.7
2018-05-26T08:22:49.834Z,4.8
2018-05-26T08:24:50.001Z,4.6
2018-05-26T08:26:50.284Z,4.8
2018-05-26T08:28:50.400Z,4.6
2018-05-26T08:30:49.545Z,4.6
2018-05-26T08:32:49.744Z,4.5
2018-05-26T08:34:50.257Z,4.7
2018-05-26T08:36:49.590Z,4.7
2018-05-26T08:38:49.786Z,4.7
2018-05-26T08:40:49.967Z,4.4
2018-05-26T08:42:50.221Z,4.5
2018-05-26T08:44:50.399Z,4.4
2018-05-26T08:46:49.862Z,4.4
2018-05-26T08:48:50.032Z,4.8
2018-05-26T08:50:50.223Z,4.5
2018-05-26T08:52:50.341Z,4.5
2018-05-26T08:54:49.525Z,4.3
2018-05-26T08:56:49.958Z,4.7
2018-05-26T08:58:50.150Z,4.2
2018-05-26T09:00:50.323Z,4.0
2018-05-26T09:02:49.472Z,4.3
2018-05-26T09:04:49.762Z,4.4
2018-05-26T09:06:50.148Z,4.1
2018-05-26T09:08:50.337Z,4.1
2018-05-26T09:10:49.447Z,4.5
2018-05-26T09:12:49.633Z,4.6
2018-05-26T09:14:49.855Z,4.5
2018-05-26T09:16:50.423Z,4.5
2018-05-26T09:18:49.671Z,4.1
2018-05-26T09:20:49.955Z,4.1
2018-05-26T09:22:50.144Z,4.4
2018-05-26T09:24:50.483Z,4.3
2018-05-26T09:26:49.825Z,4.3
2018-05-26T09:28:49.994Z,4.5
2018-05-26T09:30:50.119Z,4.5
2018-05-26T09:32:50.266Z,4.5
2018-05-26T09:34:49.599Z,4.4
2018-05-26T09:36:49.866Z,4.2
2018-05-26T09:38:49.997Z,4.2
2018-05-26T09:40:50.171Z,4.5
2018-05-26T09:42:50.417Z,4.2
2018-05-26T09:44:49.555Z,3.7
2018-05-26T09:46:49.807Z,3.7
2018-05-26T09:48:49.981Z,4.0
2018-05-26T09:50:50.150Z,4.4
2018-05-26T09:52:50.400Z,3.6
2018-05-26T09:54:49.545Z,3.6
2018-05-26T09:56:49.826Z,4.2
2018-05-26T09:58:49.952Z,3.7
2018-05-26T10:00:50.144Z,3.6
2018-05-26T10:02:50.331Z,3.6
2018-05-26T10:04:49.695Z,3.6
2018-05-26T10:06:49.914Z,3.4
2018-05-26T10:08:50.063Z,3.1
2018-05-26T10:10:50.178Z,3.1
2018-05-26T10:12:50.295Z,3.0
2018-05-26T10:14:49.502Z,3.0
2018-05-26T10:16:49.719Z,3.2
2018-05-26T10:18:49.839Z,3.2
2018-05-26T10:20:50.071Z,2.7
2018-05-26T10:22:50.212Z,2.7
2018-05-26T10:24:49.499Z,3.0
2018-05-26T10:26:49.895Z,3.0
2018-05-26T10:28:50.049Z,3.0
2018-05-26T10:30:50.163Z,3.0
2018-05-26T10:32:50.358Z,2.6
2018-05-26T10:34:49.644Z,3.0
2018-05-26T10:36:49.939Z,2.9
2018-05-26T10:38:50.145Z,2.6
2018-05-26T10:40:50.329Z,2.9
2018-05-26T10:42:49.494Z,2.8
2018-05-26T10:44:49.617Z,2.8
2018-05-26T10:46:49.806Z,2.8
2018-05-26T10:48:49.998Z,3.1
2018-05-26T10:50:50.475Z,3.1
2018-05-26T10:52:50.454Z,2.6
2018-05-26T10:54:50.331Z,2.6
2018-05-26T10:56:50.177Z,2.5
2018-05-26T10:58:50.281Z,2.5
2018-05-26T11:00:50.434Z,2.3
2018-05-26T11:02:49.701Z,2.3
2018-05-26T11:04:49.810Z,2.1
2018-05-26T11:06:49.891Z,2.5
2018-05-26T11:08:49.785Z,2.4
2018-05-26T11:10:49.908Z,2.4
2018-05-26T11:12:50.053Z,2.4
2018-05-26T11:14:50.164Z,2.3
2018-05-26T11:16:50.413Z,2.4
2018-05-26T11:18:49.586Z,2.4
2018-05-26T11:20:49.766Z,2.4
2018-05-26T11:22:49.891Z,2.4
2018-05-26T11:24:50.066Z,2.5
2018-05-26T11:26:49.848Z,2.3
2018-05-26T11:28:49.981Z,2.2
2018-05-26T11:30:50.202Z,2.2
2018-05-26T11:32:49.612Z,2.2
2018-05-26T11:34:50.050Z,2.1
2018-05-26T11:36:50.352Z,2.4
2018-05-26T11:38:49.479Z,2.4
2018-05-26T11:40:49.686Z,2.4
2018-05-26T11:42:49.908Z,2.4
2018-05-26T11:44:50.042Z,2.3
2018-05-26T11:46:50.233Z,2.1
2018-05-26T11:48:50.414Z,2.1
2018-05-26T11:50:49.611Z,2.4
2018-05-26T11:52:49.766Z,2.4
2018-05-26T11:54:49.874Z,2.1
2018-05-26T11:56:50.115Z,3.2
2018-05-26T11:58:50.253Z,3.2
2018-05-26T12:00:50.423Z,2.7
2018-05-26T12:02:49.517Z,3.5
2018-05-26T12:04:49.941Z,3.6
2018-05-26T12:06:50.192Z,2.8
2018-05-26T12:08:50.396Z,2.4
2018-05-26T12:10:49.606Z,2.4
2018-05-26T12:12:50.118Z,3.1
2018-05-26T12:14:50.401Z,2.4
2018-05-26T12:16:49.671Z,2.9
2018-05-26T12:18:49.805Z,2.9
2018-05-26T12:20:50.007Z,2.6
2018-05-26T12:22:50.184Z,2.7
2018-05-26T12:24:50.323Z,2.7
2018-05-26T12:26:49.715Z,2.9
2018-05-26T12:28:50.374Z,2.9
2018-05-26T12:30:49.547Z,2.7
2018-05-26T12:32:49.728Z,2.8
2018-05-26T12:34:50.057Z,2.9
2018-05-26T12:36:50.383Z,2.9
2018-05-26T12:38:49.662Z,3.3
2018-05-26T12:40:49.905Z,3.5
2018-05-26T12:42:50.032Z,3.2
2018-05-26T12:44:50.154Z,4.7
2018-05-26T12:46:50.428Z,4.7
2018-05-26T12:48:49.587Z,2.8
2018-05-26T12:50:49.750Z,2.6
2018-05-26T12:52:49.997Z,2.8
2018-05-26T12:54:50.198Z,2.7
2018-05-26T12:56:49.595Z,2.7
2018-05-26T12:58:49.799Z,2.8
2018-05-26T13:00:50.008Z,3.0
2018-05-26T13:02:50.193Z,3.0
2018-05-26T13:04:49.693Z,3.0
2018-05-26T13:06:50.076Z,3.1
2018-05-26T13:08:50.253Z,2.9
2018-05-26T13:10:49.475Z,2.9
2018-05-26T13:12:49.633Z,3.4
2018-05-26T13:14:49.833Z,2.9
2018-05-26T13:16:50.167Z,3.8
2018-05-26T13:18:50.388Z,3.8
2018-05-26T13:20:49.509Z,2.8
2018-05-26T13:22:49.670Z,2.9
2018-05-26T13:24:49.860Z,2.8
2018-05-26T13:26:50.308Z,2.8
2018-05-26T13:28:49.551Z,3.5
2018-05-26T13:30:49.766Z,2.9
2018-05-26T13:32:49.917Z,3.2
2018-05-26T13:34:49.538Z,3.2
2018-05-26T13:36:49.848Z,3.6
2018-05-26T13:38:50.034Z,3.0
2018-05-26T13:40:50.257Z,3.1
2018-05-26T13:42:50.345Z,5.3
2018-05-26T13:44:49.492Z,2.8
2018-05-26T13:46:49.792Z,2.8
2018-05-26T13:48:49.937Z,3.2
2018-05-26T13:50:50.075Z,2.9
2018-05-26T13:52:50.448Z,3.0
2018-05-26T13:54:50.146Z,3.0
2018-05-26T13:56:49.693Z,3.2
2018-05-26T13:58:49.853Z,3.2
2018-05-26T14:00:49.965Z,3.9
2018-05-26T14:02:50.081Z,3.2
2018-05-26T14:04:50.450Z,3.3
2018-05-26T14:06:49.792Z,3.1
2018-05-26T14:08:49.988Z,3.5
2018-05-26T14:10:50.116Z,3.3
2018-05-26T14:12:50.394Z,3.3
2018-05-26T14:14:49.665Z,3.2
2018-05-26T14:16:49.971Z,3.2
2018-05-26T14:18:50.150Z,2.7
2018-05-26T14:20:50.319Z,2.9
2018-05-26T14:22:49.528Z,2.9
2018-05-26T14:24:49.682Z,3.1
2018-05-26T14:26:49.995Z,3.0
2018-05-26T14:28:50.279Z,2.8
2018-05-26T14:30:50.404Z,2.8
2018-05-26T14:32:49.644Z,2.8
2018-05-26T14:34:49.995Z,2.9
2018-05-26T14:36:50.285Z,3.2
2018-05-26T14:38:49.501Z,2.9
2018-05-26T14:40:49.661Z,3.1
2018-05-26T14:42:49.761Z,3.1
2018-05-26T14:44:49.965Z,2.9
2018-05-26T14:46:50.263Z,3.2
2018-05-26T14:48:50.414Z,2.8
2018-05-26T14:50:49.556Z,3.1
2018-05-26T14:52:49.736Z,3.1
2018-05-26T14:54:49.909Z,3.1
2018-05-26T14:56:50.167Z,2.9
2018-05-26T14:58:50.328Z,2.8
2018-05-26T15:00:49.469Z,2.8
2018-05-26T15:02:49.584Z,2.7
2018-05-26T15:04:49.907Z,2.7
2018-05-26T15:06:50.205Z,3.4
2018-05-26T15:08:50.361Z,3.1
2018-05-26T15:10:49.457Z,3.1
2018-05-26T15:12:49.725Z,3.7
2018-05-26T15:14:49.715Z,3.7
2018-05-26T15:16:49.970Z,4.1
2018-05-26T15:18:50.164Z,3.3
2018-05-26T15:20:50.316Z,3.3
2018-05-26T15:22:49.545Z,3.3
2018-05-26T15:24:49.691Z,3.1
2018-05-26T15:26:49.889Z,3.2
2018-05-26T15:28:50.039Z,3.2
2018-05-26T15:30:50.191Z,3.1
2018-05-26T15:32:50.295Z,3.1
2018-05-26T15:34:49.788Z,4.8
2018-05-26T15:36:50.019Z,4.1
2018-05-26T15:38:50.217Z,4.1
2018-05-26T15:40:50.412Z,3.3
2018-05-26T15:42:49.505Z,3.3
2018-05-26T15:44:49.651Z,3.5
2018-05-26T15:46:49.877Z,3.4
2018-05-26T15:48:50.004Z,3.4
2018-05-26T15:50:50.163Z,3.5
2018-05-26T15:52:50.381Z,4.3
2018-05-26T15:54:49.542Z,3.8
2018-05-26T15:56:49.830Z,3.3
2018-05-26T15:58:49.998Z,3.8
2018-05-26T16:00:50.187Z,3.8
2018-05-26T16:02:49.496Z,4.6
2018-05-26T16:04:49.918Z,3.3
2018-05-26T16:06:50.315Z,3.4
2018-05-26T16:08:49.444Z,4.7
2018-05-26T16:10:49.655Z,4.7
2018-05-26T16:12:49.941Z,3.4
2018-05-26T16:14:50.051Z,5.5
2018-05-26T16:16:50.388Z,3.7
2018-05-26T16:18:49.524Z,3.7
2018-05-26T16:20:49.652Z,3.9
2018-05-26T16:22:49.848Z,3.6
2018-05-26T16:24:49.944Z,5.7
2018-05-26T16:26:50.172Z,5.7
2018-05-26T16:28:50.321Z,4.5
2018-05-26T16:30:49.497Z,3.5
2018-05-26T16:32:49.605Z,3.6
2018-05-26T16:34:50.056Z,4.1
2018-05-26T16:36:50.324Z,4.1
2018-05-26T16:38:49.503Z,3.7
2018-05-26T16:40:49.710Z,3.7
2018-05-26T16:42:49.839Z,3.7
2018-05-26T16:44:50.066Z,4.7
2018-05-26T16:46:50.447Z,4.7
2018-05-26T16:48:49.657Z,3.6
2018-05-26T16:50:49.849Z,3.5
2018-05-26T16:52:50.021Z,3.8
2018-05-26T16:54:50.255Z,3.9
2018-05-26T16:56:49.494Z,3.9
2018-05-26T16:58:49.698Z,3.6
2018-05-26T17:00:50.386Z,4.1
2018-05-26T17:02:49.524Z,4.1
2018-05-26T17:04:49.871Z,4.3
2018-05-26T17:06:50.134Z,4.3
2018-05-26T17:08:50.272Z,4.0
2018-05-26T17:10:50.419Z,9.5
2018-05-26T17:12:49.551Z,4.3
2018-05-26T17:14:49.675Z,3.9
2018-05-26T17:16:49.980Z,3.9
2018-05-26T17:18:50.155Z,4.1
2018-05-26T17:20:50.319Z,3.8
2018-05-26T17:22:49.586Z,3.6
2018-05-26T17:24:49.771Z,4.5
2018-05-26T17:26:50.107Z,4.5
2018-05-26T17:28:50.269Z,4.0
2018-05-26T17:30:50.408Z,3.6
2018-05-26T17:32:49.925Z,3.9
2018-05-26T17:34:50.361Z,3.9
2018-05-26T17:36:49.594Z,5.7
2018-05-26T17:38:49.725Z,5.7
2018-05-26T17:40:49.868Z,4.6
2018-05-26T17:42:50.034Z,4.2
2018-05-26T17:44:50.187Z,4.2
2018-05-26T17:46:49.508Z,4.4
2018-05-26T17:48:49.631Z,5.0
2018-05-26T17:50:49.761Z,4.9
2018-05-26T17:52:50.017Z,4.5
2018-05-26T17:54:50.142Z,4.6
2018-05-26T17:56:49.474Z,4.6
2018-05-26T17:58:49.665Z,6.8
2018-05-26T18:00:49.850Z,4.8
2018-05-26T18:02:50.132Z,4.7
2018-05-26T18:04:49.447Z,4.7
2018-05-26T18:06:49.636Z,5.3
2018-05-26T18:08:49.819Z,5.5
2018-05-26T18:10:49.953Z,5.0
2018-05-26T18:12:50.084Z,5.0
2018-05-26T18:14:50.258Z,6.1
2018-05-26T18:16:49.470Z,6.1
2018-05-26T18:18:49.608Z,5.2
2018-05-26T18:20:49.771Z,5.2
2018-05-26T18:22:49.643Z,5.0
2018-05-26T18:24:49.773Z,5.3
2018-05-26T18:26:50.070Z,7.8
2018-05-26T18:28:50.336Z,5.3
2018-05-26T18:30:50.476Z,6.6
2018-05-26T18:32:49.661Z,7.0
2018-05-26T18:34:49.466Z,7.0
2018-05-26T18:36:49.733Z,7.3
2018-05-26T18:38:49.838Z,6.1
2018-05-26T18:40:50.000Z,6.0
2018-05-26T18:42:50.154Z,6.0
2018-05-26T18:44:50.332Z,5.7
2018-05-26T18:46:49.614Z,5.7
2018-05-26T18:48:49.794Z,5.7
2018-05-26T18:50:49.493Z,6.9
2018-05-26T18:52:49.596Z,6.8
2018-05-26T18:54:49.702Z,6.8
2018-05-26T18:56:49.924Z,6.6
2018-05-26T18:58:50.073Z,6.9
2018-05-26T19:00:50.200Z,6.9
2018-05-26T19:02:50.369Z,7.9
2018-05-26T19:04:49.768Z,8.2
2018-05-26T19:06:50.048Z,7.8
2018-05-26T19:08:50.139Z,8.1
2018-05-26T19:10:50.307Z,7.2
2018-05-26T19:12:50.424Z,7.2
2018-05-26T19:14:49.520Z,8.9
2018-05-26T19:16:49.668Z,9.3
2018-05-26T19:18:49.819Z,9.3
2018-05-26T19:20:49.968Z,7.8
2018-05-26T19:22:50.150Z,6.9
2018-05-26T19:24:50.323Z,7.1
2018-05-26T19:26:49.521Z,7.1
2018-05-26T19:28:49.651Z,7.8
2018-05-26T19:30:49.830Z,7.8
2018-05-26T19:32:50.028Z,7.5
2018-05-26T19:34:50.315Z,7.5
2018-05-26T19:36:49.526Z,7.5
2018-05-26T19:38:49.728Z,7.3
2018-05-26T19:40:49.896Z,7.3
2018-05-26T19:42:50.023Z,7.9
2018-05-26T19:44:50.164Z,8.1
2018-05-26T19:46:49.498Z,8.9
2018-05-26T19:48:49.628Z,8.2
2018-05-26T19:50:49.768Z,8.2
2018-05-26T19:52:49.901Z,8.7
2018-05-26T19:54:50.037Z,8.8
2018-05-26T19:56:50.331Z,9.3
2018-05-26T19:58:49.483Z,9.3
2018-05-26T20:00:49.706Z,9.1
2018-05-26T20:02:49.834Z,9.1
2018-05-26T20:04:50.203Z,9.0
2018-05-26T20:06:49.493Z,9.0
2018-05-26T20:08:49.680Z,9.3
2018-05-26T20:10:49.810Z,9.1
2018-05-26T20:12:49.936Z,9.9
2018-05-26T20:14:50.065Z,10.5
2018-05-26T20:16:50.430Z,10.0
2018-05-26T20:18:49.549Z,10.0
2018-05-26T20:20:49.681Z,10.1
2018-05-26T20:22:49.862Z,10.1
2018-05-26T20:24:49.973Z,10.3
2018-05-26T20:26:50.276Z,9.8
2018-05-26T20:28:49.460Z,9.8
2018-05-26T20:30:49.654Z,9.5
2018-05-26T20:32:49.845Z,9.7
2018-05-26T20:34:50.211Z,10.2
2018-05-26T20:36:49.462Z,10.2
2018-05-26T20:38:49.578Z,11.0
2018-05-26T20:40:49.750Z,10.5
2018-05-26T20:42:49.944Z,10.7
2018-05-26T20:44:50.098Z,10.2
2018-05-26T20:46:50.312Z,10.2
2018-05-26T20:48:49.460Z,10.9
2018-05-26T20:50:49.539Z,11.2
2018-05-26T20:52:49.639Z,11.8
2018-05-26T20:54:49.802Z,11.6
2018-05-26T20:56:50.068Z,11.6
2018-05-26T20:58:50.166Z,13.2
2018-05-26T21:00:50.271Z,12.5
2018-05-26T21:02:49.515Z,12.0
2018-05-26T21:04:49.890Z,12.0
2018-05-26T21:06:50.139Z,12.4
2018-05-26T21:08:49.591Z,13.6
2018-05-26T21:10:49.796Z,13.3
2018-05-26T21:12:49.949Z,13.3
2018-05-26T21:14:50.111Z,12.3
2018-05-26T21:16:50.386Z,12.2
2018-05-26T21:18:49.619Z,12.7
2018-05-26T21:20:49.807Z,12.1
2018-05-26T21:22:49.968Z,13.0
2018-05-26T21:24:50.084Z,13.0
2018-05-26T21:26:50.328Z,12.5
2018-05-26T21:28:50.404Z,13.3
2018-05-26T21:30:49.561Z,13.3
2018-05-26T21:32:49.802Z,13.0
2018-05-26T21:34:50.129Z,13.0
2018-05-26T21:36:49.444Z,13.5
2018-05-26T21:38:49.547Z,13.5
2018-05-26T21:40:49.643Z,13.7
2018-05-26T21:42:49.827Z,13.7
2018-05-26T21:44:49.950Z,14.8
2018-05-26T21:46:50.264Z,14.8
2018-05-26T21:48:50.379Z,15.0
2018-05-26T21:50:49.549Z,15.9
2018-05-26T21:52:49.698Z,16.5
2018-05-26T21:54:49.923Z,16.5
2018-05-26T21:56:50.151Z,16.1
2018-05-26T21:58:50.354Z,16.1
2018-05-26T22:00:49.522Z,17.1
2018-05-26T22:02:49.647Z,17.1
2018-05-26T22:04:50.105Z,17.3
2018-05-26T22:06:49.522Z,17.1
2018-05-26T22:08:49.647Z,16.4
2018-05-26T22:10:49.786Z,16.9
2018-05-26T22:12:49.939Z,15.9
2018-05-26T22:14:50.082Z,15.9
2018-05-26T22:16:50.374Z,17.5
2018-05-26T22:18:49.536Z,17.0
2018-05-26T22:20:49.693Z,16.2
2018-05-26T22:22:49.851Z,16.2
2018-05-26T22:24:49.960Z,17.5
2018-05-26T22:26:50.193Z,17.5
2018-05-26T22:28:50.312Z,19.0
2018-05-26T22:30:49.479Z,17.7
2018-05-26T22:32:49.575Z,17.7
2018-05-26T22:34:49.966Z,19.1
2018-05-26T22:36:50.284Z,19.1
2018-05-26T22:38:50.393Z,19.1
2018-05-26T22:40:49.523Z,20.1
2018-05-26T22:42:49.750Z,20.1
2018-05-26T22:44:49.845Z,19.4
2018-05-26T22:46:50.120Z,18.1
2018-05-26T22:48:50.263Z,18.1
2018-05-26T22:50:50.411Z,19.3
2018-05-26T22:52:49.574Z,19.3
2018-05-26T22:54:49.724Z,18.9
2018-05-26T22:56:50.007Z,19.9
2018-05-26T22:58:50.156Z,19.9
2018-05-26T23:00:50.276Z,20.8
2018-05-26T23:02:49.477Z,20.8
2018-05-26T23:04:49.955Z,20.8
2018-05-26T23:06:50.195Z,22.4
2018-05-26T23:08:50.372Z,20.2
2018-05-26T23:10:49.539Z,20.2
2018-05-26T23:12:49.632Z,20.3
2018-05-26T23:14:49.736Z,20.4
2018-05-26T23:16:50.033Z,21.3
2018-05-26T23:18:50.182Z,21.0
2018-05-26T23:20:50.367Z,21.0
2018-05-26T23:22:49.487Z,21.3
2018-05-26T23:24:49.626Z,20.3
2018-05-26T23:26:49.811Z,20.2
2018-05-26T23:28:50.008Z,20.8
2018-05-26T23:30:50.164Z,20.8
2018-05-26T23:32:50.309Z,20.5
2018-05-26T23:34:49.783Z,21.5
2018-05-26T23:36:49.970Z,21.9
2018-05-26T23:38:50.082Z,20.3
2018-05-26T23:40:50.224Z,20.3
2018-05-26T23:42:50.344Z,23.1
2018-05-26T23:44:49.497Z,21.7
2018-05-26T23:46:49.747Z,21.7
2018-05-26T23:48:49.903Z,22.4
2018-05-26T23:50:50.069Z,21.5
2018-05-26T23:52:50.249Z,21.5
2018-05-26T23:54:50.411Z,22.2
2018-05-26T23:56:49.698Z,21.0
2018-05-26T23:58:49.824Z,20.6
